createdAt,value
2022-10-19T00:00:12.278Z,1026.60
2022-10-19T00:01:12.066Z,1026.61
2022-10-19T00:02:12.432Z,1026.56
2022-10-19T00:03:33.145Z,1026.55
2022-10-19T00:04:12.469Z,1026.53
2022-10-19T00:05:12.269Z,1026.54
2022-10-19T00:06:12.003Z,1026.55
2022-10-19T00:07:12.477Z,1026.50
2022-10-19T00:08:12.936Z,1026.54
2022-10-19T00:09:13.875Z,1026.58
2022-10-19T00:10:12.231Z,1026.52
2022-10-19T00:11:11.985Z,1026.55
2022-10-19T00:12:12.270Z,1026.52
2022-10-19T00:13:32.934Z,1026.51
2022-10-19T00:14:12.410Z,1026.57
2022-10-19T00:15:12.171Z,1026.58
2022-10-19T00:16:11.952Z,1026.53
2022-10-19T00:17:12.224Z,1026.48
2022-10-19T00:18:12.003Z,1026.50
2022-10-19T00:19:12.292Z,1026.48
2022-10-19T00:20:12.022Z,1026.48
2022-10-19T00:21:12.301Z,1026.49
2022-10-19T00:22:13.932Z,1026.54
2022-10-19T00:23:33.315Z,1026.51
2022-10-19T00:24:12.110Z,1026.53
2022-10-19T00:25:11.907Z,1026.50
2022-10-19T00:26:12.196Z,1026.49
2022-10-19T00:27:11.963Z,1026.48
2022-10-19T00:28:12.325Z,1026.46
2022-10-19T00:29:12.129Z,1026.46
2022-10-19T00:30:11.852Z,1026.39
2022-10-19T00:31:12.123Z,1026.41
2022-10-19T00:32:11.853Z,1026.39
2022-10-19T00:33:33.645Z,1026.44
2022-10-19T00:34:12.001Z,1026.42
2022-10-19T00:35:11.735Z,1026.43
2022-10-19T00:36:12.046Z,1026.44
2022-10-19T00:37:11.826Z,1026.42
2022-10-19T00:38:12.088Z,1026.42
2022-10-19T00:39:11.877Z,1026.42
2022-10-19T00:40:11.667Z,1026.41
2022-10-19T00:41:11.912Z,1026.38
2022-10-19T00:42:11.675Z,1026.45
2022-10-19T00:43:32.458Z,1026.44
2022-10-19T00:44:11.757Z,1026.44
2022-10-19T00:45:12.043Z,1026.50
2022-10-19T00:46:11.831Z,1026.50
2022-10-19T00:47:11.615Z,1026.52
2022-10-19T00:48:11.857Z,1026.56
2022-10-19T00:49:12.451Z,1026.54
2022-10-19T00:50:13.361Z,1026.54
2022-10-19T00:51:11.689Z,1026.62
2022-10-19T00:52:11.989Z,1026.59
2022-10-19T00:53:33.229Z,1026.59
2022-10-19T00:54:11.560Z,1026.57
2022-10-19T00:55:11.812Z,1026.58
2022-10-19T00:56:11.609Z,1026.58
2022-10-19T00:57:11.839Z,1026.59
2022-10-19T00:58:11.621Z,1026.59
2022-10-19T00:59:11.892Z,1026.54
2022-10-19T01:00:11.708Z,1026.59
2022-10-19T01:01:11.525Z,1026.62
2022-10-19T01:02:11.722Z,1026.61
2022-10-19T01:03:32.471Z,1026.59
2022-10-19T01:04:11.790Z,1026.59
2022-10-19T01:05:11.552Z,1026.57
2022-10-19T01:06:11.824Z,1026.52
2022-10-19T01:07:11.611Z,1026.52
2022-10-19T01:08:11.403Z,1026.50
2022-10-19T01:09:11.721Z,1026.46
2022-10-19T01:10:11.559Z,1026.43
2022-10-19T01:11:11.759Z,1026.42
2022-10-19T01:12:11.521Z,1026.43
2022-10-19T01:13:32.787Z,1026.38
2022-10-19T01:14:11.592Z,1026.41
2022-10-19T01:15:11.353Z,1026.41
2022-10-19T01:16:11.633Z,1026.41
2022-10-19T01:17:11.433Z,1026.44
2022-10-19T01:18:12.235Z,1026.44
2022-10-19T01:19:11.524Z,1026.45
2022-10-19T01:20:11.301Z,1026.46
2022-10-19T01:21:11.552Z,1026.44
2022-10-19T01:22:11.295Z,1026.40
2022-10-19T01:23:31.988Z,1026.40
2022-10-19T01:24:11.446Z,1026.39
2022-10-19T01:25:11.193Z,1026.41
2022-10-19T01:26:11.497Z,1026.36
2022-10-19T01:27:11.237Z,1026.35
2022-10-19T01:28:11.516Z,1026.35
2022-10-19T01:29:11.359Z,1026.34
2022-10-19T01:30:12.998Z,1026.37
2022-10-19T01:31:12.256Z,1026.33
2022-10-19T01:32:11.111Z,1026.38
2022-10-19T01:33:32.839Z,1026.33
2022-10-19T01:34:11.184Z,1026.35
2022-10-19T01:35:11.462Z,1026.34
2022-10-19T01:36:11.210Z,1026.33
2022-10-19T01:37:11.469Z,1026.32
2022-10-19T01:38:11.262Z,1026.30
2022-10-19T01:39:11.027Z,1026.32
2022-10-19T01:40:11.328Z,1026.28
2022-10-19T01:41:11.101Z,1026.27
2022-10-19T01:42:11.359Z,1026.28
2022-10-19T01:43:32.626Z,1026.29
2022-10-19T01:44:11.453Z,1026.29
2022-10-19T01:45:11.178Z,1026.27
2022-10-19T01:46:11.436Z,1026.28
2022-10-19T01:47:11.201Z,1026.28
2022-10-19T01:48:11.009Z,1026.25
2022-10-19T01:49:11.241Z,1026.23
2022-10-19T01:50:11.392Z,1026.19
2022-10-19T01:51:12.282Z,1026.26
2022-10-19T01:52:11.117Z,1026.21
2022-10-19T01:53:32.864Z,1026.24
2022-10-19T01:54:11.211Z,1026.21
2022-10-19T01:55:10.981Z,1026.22
2022-10-19T01:56:11.258Z,1026.22
2022-10-19T01:57:11.042Z,1026.22
2022-10-19T01:58:11.283Z,1026.24
2022-10-19T01:59:11.051Z,1026.20
2022-10-19T02:00:10.854Z,1026.20
2022-10-19T02:02:10.852Z,1026.18
2022-10-19T02:03:31.514Z,1026.18
2022-10-19T02:04:10.933Z,1026.22
2022-10-19T02:05:11.202Z,1026.21
2022-10-19T02:06:10.962Z,1026.20
2022-10-19T02:07:11.204Z,1026.19
2022-10-19T02:08:10.953Z,1026.17
2022-10-19T02:09:12.628Z,1026.13
2022-10-19T02:10:11.521Z,1026.13
2022-10-19T02:11:12.230Z,1026.12
2022-10-19T02:12:11.096Z,1026.07
2022-10-19T02:13:30.865Z,1026.12
2022-10-19T02:14:11.154Z,1026.11
2022-10-19T02:15:11.019Z,1026.14
2022-10-19T02:16:10.685Z,1026.11
2022-10-19T02:17:10.947Z,1026.10
2022-10-19T02:18:12.785Z,1026.09
2022-10-19T02:19:11.090Z,1026.08
2022-10-19T02:20:10.826Z,1026.10
2022-10-19T02:21:11.197Z,1026.04
2022-10-19T02:22:10.895Z,1025.99
2022-10-19T02:23:30.666Z,1025.98
2022-10-19T02:24:10.957Z,1025.97
2022-10-19T02:25:10.677Z,1025.93
2022-10-19T02:26:10.978Z,1025.90
2022-10-19T02:27:11.518Z,1025.94
2022-10-19T02:28:10.529Z,1025.92
2022-10-19T02:29:10.791Z,1025.93
2022-10-19T02:30:10.718Z,1025.91
2022-10-19T02:31:11.007Z,1025.88
2022-10-19T02:32:10.660Z,1025.82
2022-10-19T02:33:31.448Z,1025.90
2022-10-19T02:34:10.730Z,1025.89
2022-10-19T02:35:10.525Z,1025.85
2022-10-19T02:36:10.801Z,1025.83
2022-10-19T02:37:10.560Z,1025.77
2022-10-19T02:38:10.851Z,1025.78
2022-10-19T02:39:12.032Z,1025.72
2022-10-19T02:40:10.894Z,1025.70
2022-10-19T02:41:10.660Z,1025.68
2022-10-19T02:42:10.442Z,1025.72
2022-10-19T02:43:30.730Z,1025.70
2022-10-19T02:44:10.512Z,1025.72
2022-10-19T02:45:11.521Z,1025.73
2022-10-19T02:46:10.577Z,1025.77
2022-10-19T02:47:10.322Z,1025.79
2022-10-19T02:48:10.641Z,1025.83
2022-10-19T02:49:10.423Z,1025.78
2022-10-19T02:50:10.693Z,1025.80
2022-10-19T02:51:10.603Z,1025.80
2022-10-19T02:52:10.803Z,1025.77
2022-10-19T02:53:30.550Z,1025.74
2022-10-19T02:54:10.332Z,1025.72
2022-10-19T02:55:10.629Z,1025.73
2022-10-19T02:56:10.404Z,1025.70
2022-10-19T02:57:11.081Z,1025.74
2022-10-19T02:58:10.434Z,1025.66
2022-10-19T02:59:10.685Z,1025.71
2022-10-19T03:00:10.472Z,1025.74
2022-10-19T03:01:10.249Z,1025.70
2022-10-19T03:02:10.513Z,1025.70
2022-10-19T03:03:30.266Z,1025.72
2022-10-19T03:04:10.479Z,1025.72
2022-10-19T03:05:10.212Z,1025.73
2022-10-19T03:06:11.904Z,1025.74
2022-10-19T03:07:10.211Z,1025.73
2022-10-19T03:08:10.455Z,1025.75
2022-10-19T03:09:10.190Z,1025.77
2022-10-19T03:10:10.430Z,1025.74
2022-10-19T03:11:11.637Z,1025.78
2022-10-19T03:12:10.469Z,1025.77
2022-10-19T03:13:30.199Z,1025.81
2022-10-19T03:14:10.431Z,1025.83
2022-10-19T03:15:10.180Z,1025.76
2022-10-19T03:16:10.408Z,1025.74
2022-10-19T03:17:10.178Z,1025.78
2022-10-19T03:18:10.405Z,1025.78
2022-10-19T03:19:10.161Z,1025.78
2022-10-19T03:20:10.409Z,1025.80
2022-10-19T03:21:10.162Z,1025.76
2022-10-19T03:22:10.382Z,1025.76
2022-10-19T03:23:30.142Z,1025.75
2022-10-19T03:24:10.375Z,1025.74
2022-10-19T03:25:10.109Z,1025.72
2022-10-19T03:26:12.220Z,1025.68
2022-10-19T03:27:10.086Z,1025.70
2022-10-19T03:28:10.335Z,1025.64
2022-10-19T03:29:10.084Z,1025.66
2022-10-19T03:30:10.318Z,1025.64
2022-10-19T03:31:10.057Z,1025.64
2022-10-19T03:32:11.011Z,1025.69
2022-10-19T03:33:30.060Z,1025.64
2022-10-19T03:34:10.295Z,1025.68
2022-10-19T03:35:10.027Z,1025.67
2022-10-19T03:36:10.265Z,1025.70
2022-10-19T03:37:10.001Z,1025.70
2022-10-19T03:38:10.242Z,1025.73
2022-10-19T03:39:09.995Z,1025.70
2022-10-19T03:40:10.238Z,1025.71
2022-10-19T03:41:09.968Z,1025.67
2022-10-19T03:42:10.214Z,1025.66
2022-10-19T03:43:29.976Z,1025.66
2022-10-19T03:44:10.220Z,1025.65
2022-10-19T03:45:09.971Z,1025.64
2022-10-19T03:46:10.252Z,1025.63
2022-10-19T03:47:09.939Z,1025.67
2022-10-19T03:48:10.696Z,1025.63
2022-10-19T03:49:10.076Z,1025.68
2022-10-19T03:50:09.738Z,1025.64
2022-10-19T03:51:09.988Z,1025.68
2022-10-19T03:52:09.732Z,1025.64
2022-10-19T03:53:32.497Z,1025.68
2022-10-19T03:54:09.728Z,1025.69
2022-10-19T03:55:09.988Z,1025.68
2022-10-19T03:56:09.718Z,1025.72
2022-10-19T03:57:09.962Z,1025.71
2022-10-19T03:58:09.700Z,1025.70
2022-10-19T03:59:09.942Z,1025.71
2022-10-19T04:00:09.690Z,1025.67
2022-10-19T04:01:09.948Z,1025.68
2022-10-19T04:02:09.661Z,1025.63
2022-10-19T04:03:29.951Z,1025.67
2022-10-19T04:04:09.651Z,1025.68
2022-10-19T04:05:09.889Z,1025.68
2022-10-19T04:06:09.635Z,1025.65
2022-10-19T04:07:09.872Z,1025.65
2022-10-19T04:08:09.599Z,1025.72
2022-10-19T04:09:09.850Z,1025.67
2022-10-19T04:10:09.570Z,1025.68
2022-10-19T04:11:09.803Z,1025.69
2022-10-19T04:12:09.553Z,1025.65
2022-10-19T04:13:29.817Z,1025.67
2022-10-19T04:15:09.783Z,1025.64
2022-10-19T04:16:09.531Z,1025.65
2022-10-19T04:17:09.765Z,1025.63
2022-10-19T04:18:09.517Z,1025.65
2022-10-19T04:19:09.794Z,1025.64
2022-10-19T04:20:09.551Z,1025.66
2022-10-19T04:21:09.795Z,1025.61
2022-10-19T04:22:09.530Z,1025.62
2022-10-19T04:23:29.786Z,1025.66
2022-10-19T04:24:09.527Z,1025.61
2022-10-19T04:25:09.785Z,1025.67
2022-10-19T04:26:09.515Z,1025.64
2022-10-19T04:27:09.746Z,1025.69
2022-10-19T04:28:09.499Z,1025.64
2022-10-19T04:29:09.779Z,1025.68
2022-10-19T04:30:08.758Z,1025.67
2022-10-19T04:31:09.498Z,1025.65
2022-10-19T04:32:09.235Z,1025.60
2022-10-19T04:33:30.976Z,1025.65
2022-10-19T04:34:10.726Z,1025.61
2022-10-19T04:35:09.530Z,1025.60
2022-10-19T04:36:08.728Z,1025.66
2022-10-19T04:37:08.678Z,1025.66
2022-10-19T04:38:08.665Z,1025.66
2022-10-19T04:39:08.667Z,1025.67
2022-10-19T04:40:12.740Z,1025.69
2022-10-19T04:41:09.637Z,1025.70
2022-10-19T04:42:08.682Z,1025.72
2022-10-19T04:43:30.157Z,1025.74
2022-10-19T04:44:08.691Z,1025.75
2022-10-19T04:45:08.610Z,1025.73
2022-10-19T04:46:08.590Z,1025.75
2022-10-19T04:47:08.622Z,1025.71
2022-10-19T04:48:08.566Z,1025.74
2022-10-19T04:49:08.550Z,1025.71
2022-10-19T04:50:08.541Z,1025.70
2022-10-19T04:51:08.542Z,1025.69
2022-10-19T04:52:08.510Z,1025.67
2022-10-19T04:53:29.127Z,1025.68
2022-10-19T04:54:09.450Z,1025.65
2022-10-19T04:55:08.492Z,1025.66
2022-10-19T04:56:08.479Z,1025.63
2022-10-19T04:57:08.462Z,1025.67
2022-10-19T04:58:08.451Z,1025.62
2022-10-19T04:59:08.500Z,1025.64
2022-10-19T05:00:08.459Z,1025.59
2022-10-19T05:01:08.473Z,1025.61
2022-10-19T05:02:09.163Z,1025.63
2022-10-19T05:03:30.919Z,1025.62
2022-10-19T05:04:09.211Z,1025.62
2022-10-19T05:05:08.948Z,1025.66
2022-10-19T05:06:09.221Z,1025.63
2022-10-19T05:07:08.954Z,1025.62
2022-10-19T05:08:09.212Z,1025.64
2022-10-19T05:09:08.950Z,1025.64
2022-10-19T05:10:09.195Z,1025.71
2022-10-19T05:11:08.954Z,1025.70
2022-10-19T05:12:09.194Z,1025.64
2022-10-19T05:13:29.075Z,1025.61
2022-10-19T05:14:10.189Z,1025.60
2022-10-19T05:15:10.464Z,1025.57
2022-10-19T05:16:09.246Z,1025.60
2022-10-19T05:17:08.997Z,1025.58
2022-10-19T05:18:09.236Z,1025.55
2022-10-19T05:19:08.979Z,1025.52
2022-10-19T05:20:09.227Z,1025.53
2022-10-19T05:21:08.986Z,1025.56
2022-10-19T05:22:08.705Z,1025.49
2022-10-19T05:23:29.628Z,1025.50
2022-10-19T05:24:08.746Z,1025.49
2022-10-19T05:25:08.987Z,1025.50
2022-10-19T05:26:08.725Z,1025.49
2022-10-19T05:27:08.994Z,1025.50
2022-10-19T05:28:08.743Z,1025.49
2022-10-19T05:29:09.037Z,1025.45
2022-10-19T05:30:08.732Z,1025.41
2022-10-19T05:31:08.971Z,1025.41
2022-10-19T05:32:08.710Z,1025.40
2022-10-19T05:33:30.438Z,1025.40
2022-10-19T05:34:09.646Z,1025.37
2022-10-19T05:35:09.930Z,1025.34
2022-10-19T05:36:08.739Z,1025.36
2022-10-19T05:37:08.977Z,1025.41
2022-10-19T05:38:08.740Z,1025.35
2022-10-19T05:39:08.969Z,1025.38
2022-10-19T05:40:08.739Z,1025.36
2022-10-19T05:41:08.967Z,1025.37
2022-10-19T05:42:08.700Z,1025.35
2022-10-19T05:43:29.136Z,1025.36
2022-10-19T05:44:08.744Z,1025.34
2022-10-19T05:45:08.501Z,1025.34
2022-10-19T05:46:08.730Z,1025.32
2022-10-19T05:47:08.483Z,1025.36
2022-10-19T05:48:08.723Z,1025.33
2022-10-19T05:49:08.466Z,1025.29
2022-10-19T05:50:08.712Z,1025.30
2022-10-19T05:51:08.467Z,1025.26
2022-10-19T05:52:07.895Z,1025.26
2022-10-19T05:53:28.541Z,1025.19
2022-10-19T05:54:07.976Z,1025.18
2022-10-19T05:55:08.826Z,1025.22
2022-10-19T05:56:07.902Z,1025.21
2022-10-19T05:57:08.632Z,1025.20
2022-10-19T05:58:07.843Z,1025.23
2022-10-19T05:59:07.855Z,1025.19
2022-10-19T06:00:08.573Z,1025.25
2022-10-19T06:01:08.326Z,1025.20
2022-10-19T06:02:08.595Z,1025.21
2022-10-19T06:03:30.300Z,1025.21
2022-10-19T06:04:08.661Z,1025.22
2022-10-19T06:05:08.364Z,1025.21
2022-10-19T06:06:08.611Z,1025.21
2022-10-19T06:07:08.367Z,1025.18
2022-10-19T06:08:08.611Z,1025.19
2022-10-19T06:09:08.363Z,1025.21
2022-10-19T06:10:08.608Z,1025.22
2022-10-19T06:11:08.369Z,1025.20
2022-10-19T06:12:08.617Z,1025.20
2022-10-19T06:13:29.178Z,1025.22
2022-10-19T06:14:08.627Z,1025.22
2022-10-19T06:15:09.362Z,1025.20
2022-10-19T06:16:09.091Z,1025.17
2022-10-19T06:17:08.409Z,1025.10
2022-10-19T06:18:08.168Z,1025.13
2022-10-19T06:19:08.417Z,1025.10
2022-10-19T06:20:08.146Z,1025.09
2022-10-19T06:21:08.394Z,1025.16
2022-10-19T06:22:08.136Z,1025.13
2022-10-19T06:23:29.905Z,1025.18
2022-10-19T06:24:08.154Z,1025.22
2022-10-19T06:25:08.408Z,1025.26
2022-10-19T06:26:08.161Z,1025.22
2022-10-19T06:27:08.408Z,1025.19
2022-10-19T06:28:08.146Z,1025.18
2022-10-19T06:29:08.404Z,1025.20
2022-10-19T06:30:08.130Z,1025.24
2022-10-19T06:31:09.240Z,1025.22
2022-10-19T06:32:08.126Z,1025.21
2022-10-19T06:33:29.853Z,1025.20
2022-10-19T06:34:08.198Z,1025.27
2022-10-19T06:35:08.381Z,1025.26
2022-10-19T06:36:08.149Z,1025.30
2022-10-19T06:37:08.419Z,1025.29
2022-10-19T06:38:08.139Z,1025.30
2022-10-19T06:39:08.382Z,1025.28
2022-10-19T06:40:08.175Z,1025.28
2022-10-19T06:41:08.374Z,1025.27
2022-10-19T06:42:08.118Z,1025.25
2022-10-19T06:43:28.692Z,1025.25
2022-10-19T06:44:08.154Z,1025.25
2022-10-19T06:45:07.893Z,1025.28
2022-10-19T06:46:08.130Z,1025.30
2022-10-19T06:47:07.890Z,1025.28
2022-10-19T06:48:08.134Z,1025.28
2022-10-19T06:49:07.891Z,1025.32
2022-10-19T06:50:08.139Z,1025.35
2022-10-19T06:51:07.891Z,1025.32
2022-10-19T06:52:08.139Z,1025.36
2022-10-19T06:53:28.626Z,1025.36
2022-10-19T06:54:08.199Z,1025.35
2022-10-19T06:55:07.943Z,1025.37
2022-10-19T06:56:09.145Z,1025.37
2022-10-19T06:57:08.910Z,1025.34
2022-10-19T06:58:08.223Z,1025.30
2022-10-19T06:59:07.986Z,1025.28
2022-10-19T07:00:08.226Z,1025.37
2022-10-19T07:01:08.042Z,1025.29
2022-10-19T07:02:07.745Z,1025.26
2022-10-19T07:03:29.469Z,1025.27
2022-10-19T07:04:07.748Z,1025.26
2022-10-19T07:05:07.994Z,1025.25
2022-10-19T07:06:07.735Z,1025.21
2022-10-19T07:07:07.986Z,1025.27
2022-10-19T07:08:07.772Z,1025.24
2022-10-19T07:09:07.990Z,1025.23
2022-10-19T07:10:07.736Z,1025.22
2022-10-19T07:11:07.977Z,1025.23
2022-10-19T07:12:07.714Z,1025.26
2022-10-19T07:13:29.495Z,1025.31
2022-10-19T07:14:07.800Z,1025.30
2022-10-19T07:15:08.043Z,1025.33
2022-10-19T07:16:07.791Z,1025.33
2022-10-19T07:17:08.698Z,1025.33
2022-10-19T07:18:07.807Z,1025.24
2022-10-19T07:19:07.569Z,1025.28
2022-10-19T07:20:07.808Z,1025.26
2022-10-19T07:21:07.569Z,1025.19
2022-10-19T07:22:07.806Z,1025.21
2022-10-19T07:23:27.717Z,1025.23
2022-10-19T07:24:07.859Z,1025.17
2022-10-19T07:25:07.609Z,1025.11
2022-10-19T07:26:07.849Z,1025.11
2022-10-19T07:27:07.597Z,1025.15
2022-10-19T07:28:07.854Z,1025.18
2022-10-19T07:29:07.621Z,1025.20
2022-10-19T07:30:07.801Z,1025.24
2022-10-19T07:31:07.550Z,1025.22
2022-10-19T07:32:07.799Z,1025.27
2022-10-19T07:33:28.538Z,1025.26
2022-10-19T07:34:07.823Z,1025.26
2022-10-19T07:35:07.560Z,1025.23
2022-10-19T07:36:07.875Z,1025.19
2022-10-19T07:37:07.551Z,1025.18
2022-10-19T07:38:09.218Z,1025.24
2022-10-19T07:39:07.541Z,1025.19
2022-10-19T07:40:07.774Z,1025.14
2022-10-19T07:41:07.552Z,1025.17
2022-10-19T07:42:07.264Z,1025.13
2022-10-19T07:43:28.555Z,1025.08
2022-10-19T07:44:08.244Z,1025.07
2022-10-19T07:45:07.582Z,1025.03
2022-10-19T07:46:07.331Z,1024.99
2022-10-19T07:47:07.577Z,1025.02
2022-10-19T07:48:07.314Z,1024.99
2022-10-19T07:49:07.600Z,1025.00
2022-10-19T07:50:07.355Z,1025.01
2022-10-19T07:51:07.555Z,1025.04
2022-10-19T07:52:07.289Z,1025.00
2022-10-19T07:53:29.028Z,1024.93
2022-10-19T07:54:07.309Z,1024.99
2022-10-19T07:55:07.569Z,1024.94
2022-10-19T07:56:07.287Z,1024.88
2022-10-19T07:57:07.580Z,1024.91
2022-10-19T07:58:08.753Z,1024.96
2022-10-19T07:59:07.605Z,1024.90
2022-10-19T08:00:07.307Z,1024.87
2022-10-19T08:01:07.557Z,1024.91
2022-10-19T08:02:07.342Z,1024.91
2022-10-19T08:04:42.693Z,1024.92
2022-10-19T08:05:11.526Z,1024.86
2022-10-19T08:06:07.029Z,1024.87
2022-10-19T08:07:07.266Z,1024.83
2022-10-19T08:08:07.016Z,1024.86
2022-10-19T08:09:07.308Z,1024.84
2022-10-19T08:10:06.990Z,1024.85
2022-10-19T08:11:07.239Z,1024.82
2022-10-19T08:12:06.971Z,1024.80
2022-10-19T08:13:28.249Z,1024.83
2022-10-19T08:14:07.013Z,1024.78
2022-10-19T08:15:07.262Z,1024.77
2022-10-19T08:16:06.997Z,1024.79
2022-10-19T08:17:07.250Z,1024.69
2022-10-19T08:18:07.293Z,1024.72
2022-10-19T08:19:08.717Z,1024.75
2022-10-19T08:20:07.012Z,1024.74
2022-10-19T08:21:07.255Z,1024.73
2022-10-19T08:22:06.983Z,1024.73
2022-10-19T08:23:28.215Z,1024.59
2022-10-19T08:24:06.995Z,1024.61
2022-10-19T08:25:07.237Z,1024.60
2022-10-19T08:26:06.983Z,1024.54
2022-10-19T08:27:07.230Z,1024.56
2022-10-19T08:28:06.967Z,1024.62
2022-10-19T08:29:07.240Z,1024.58
2022-10-19T08:30:06.964Z,1024.58
2022-10-19T08:31:07.206Z,1024.60
2022-10-19T08:32:06.964Z,1024.61
2022-10-19T08:33:28.218Z,1024.54
2022-10-19T08:34:06.971Z,1024.51
2022-10-19T08:35:10.009Z,1024.44
2022-10-19T08:36:06.967Z,1024.53
2022-10-19T08:38:15.754Z,1024.49
2022-10-19T08:38:21.507Z,1024.46
2022-10-19T08:39:22.811Z,1024.48
2022-10-19T08:40:22.100Z,1024.35
2022-10-19T08:41:22.143Z,1024.40
2022-10-19T08:44:05.065Z,1024.39
2022-10-19T08:44:33.950Z,1024.37
2022-10-19T08:48:16.769Z,1024.34
2022-10-19T08:48:23.024Z,1024.26
2022-10-19T08:49:22.765Z,1024.24
2022-10-19T08:50:23.692Z,1024.29
2022-10-19T09:17:52.015Z,1024.14
2022-10-19T09:18:03.506Z,1024.17
2022-10-19T09:25:24.788Z,1024.10
2022-10-19T09:25:31.054Z,1023.99
2022-10-19T09:26:31.832Z,1023.94
2022-10-19T09:27:50.183Z,1023.98
2022-10-19T09:30:58.884Z,1023.96
2022-10-19T09:31:03.674Z,1024.07
2022-10-19T09:32:04.424Z,1024.03
2022-10-19T09:33:04.171Z,1024.01
2022-10-19T09:34:04.411Z,1024.03
2022-10-19T09:35:04.172Z,1024.02
2022-10-19T09:36:04.427Z,1023.98
2022-10-19T09:37:04.250Z,1023.97
2022-10-19T09:38:04.428Z,1023.96
2022-10-19T09:39:28.559Z,1023.94
2022-10-19T09:40:05.915Z,1023.96
2022-10-19T09:41:22.794Z,1023.93
2022-10-19T09:42:39.079Z,1023.92
2022-10-19T09:43:04.305Z,1023.88
2022-10-19T09:50:56.553Z,1023.85
2022-10-19T09:51:01.323Z,1023.79
2022-10-19T11:25:16.333Z,1023.83
2022-10-19T11:26:01.389Z,1022.54
2022-10-19T11:26:25.757Z,1022.54
2022-10-19T11:27:46.557Z,1022.68
2022-10-19T11:28:23.303Z,1022.46
2022-10-19T11:29:22.564Z,1022.66
2022-10-19T11:30:22.362Z,1022.50
2022-10-19T11:31:22.695Z,1022.29
2022-10-19T11:32:22.095Z,1022.40
2022-10-19T11:33:30.287Z,1022.47
2022-10-19T11:34:25.135Z,1022.42
2022-10-19T11:35:33.954Z,1022.40
2022-10-19T11:42:03.311Z,1022.39
2022-10-19T11:44:27.861Z,1022.18
2022-10-19T11:46:01.661Z,1022.19
2022-10-19T11:46:19.985Z,1022.07
2022-10-19T11:47:07.267Z,1021.93
2022-10-19T11:48:07.013Z,1021.98
2022-10-19T11:49:34.242Z,1022.05
2022-10-19T11:51:20.532Z,1021.82
2022-10-19T11:52:08.992Z,1021.87
2022-10-19T11:53:07.247Z,1021.82
2022-10-19T11:54:28.475Z,1021.75
2022-10-19T11:55:07.268Z,1021.73
2022-10-19T11:56:07.024Z,1021.67
2022-10-19T11:57:10.702Z,1021.61
2022-10-19T11:58:07.046Z,1021.70
2022-10-19T11:59:07.353Z,1021.67
2022-10-19T12:00:14.634Z,1021.70
2022-10-19T12:01:07.785Z,1021.66
2022-10-19T12:02:07.111Z,1021.77
2022-10-19T12:03:06.798Z,1021.69
2022-10-19T12:04:27.916Z,1021.75
2022-10-19T12:05:06.820Z,1021.73
2022-10-19T12:06:07.061Z,1021.81
2022-10-19T12:07:06.838Z,1021.71
2022-10-19T12:08:07.105Z,1021.72
2022-10-19T12:09:06.871Z,1021.70
2022-10-19T12:10:07.096Z,1021.78
2022-10-19T12:11:06.847Z,1021.74
2022-10-19T12:12:07.104Z,1021.73
2022-10-19T12:13:06.861Z,1021.74
2022-10-19T12:14:28.102Z,1021.71
2022-10-19T12:15:07.827Z,1021.66
2022-10-19T12:16:07.145Z,1021.66
2022-10-19T12:17:06.944Z,1021.64
2022-10-19T12:18:06.634Z,1021.63
2022-10-19T12:19:06.888Z,1021.64
2022-10-19T12:20:06.630Z,1021.63
2022-10-19T12:21:06.877Z,1021.59
2022-10-19T12:22:06.630Z,1021.55
2022-10-19T12:23:06.875Z,1021.57
2022-10-19T12:24:27.709Z,1021.56
2022-10-19T12:25:07.897Z,1021.58
2022-10-19T12:26:06.746Z,1021.57
2022-10-19T12:27:07.009Z,1021.57
2022-10-19T12:28:06.706Z,1021.61
2022-10-19T12:29:06.949Z,1021.61
2022-10-19T12:30:06.694Z,1021.60
2022-10-19T12:31:06.939Z,1021.65
2022-10-19T12:32:06.682Z,1021.62
2022-10-19T12:33:06.921Z,1021.57
2022-10-19T12:34:27.661Z,1021.65
2022-10-19T12:35:06.438Z,1021.62
2022-10-19T12:36:06.721Z,1021.54
2022-10-19T12:37:06.456Z,1021.56
2022-10-19T12:38:06.712Z,1021.50
2022-10-19T12:39:06.461Z,1021.48
2022-10-19T12:40:06.735Z,1021.48
2022-10-19T12:41:06.470Z,1021.48
2022-10-19T12:42:06.702Z,1021.46
2022-10-19T12:43:06.441Z,1021.40
2022-10-19T12:44:27.446Z,1021.41
2022-10-19T12:45:06.727Z,1021.38
2022-10-19T12:46:06.806Z,1021.33
2022-10-19T12:47:06.478Z,1021.33
2022-10-19T12:48:06.735Z,1021.33
2022-10-19T12:49:06.482Z,1021.26
2022-10-19T12:50:06.758Z,1021.36
2022-10-19T12:51:06.490Z,1021.39
2022-10-19T12:52:06.740Z,1021.33
2022-10-19T12:53:06.495Z,1021.35
2022-10-19T12:54:28.259Z,1021.30
2022-10-19T12:55:06.547Z,1021.30
2022-10-19T12:56:06.328Z,1021.27
2022-10-19T12:57:06.569Z,1021.31
2022-10-19T12:58:06.309Z,1021.26
2022-10-19T12:59:06.560Z,1021.28
2022-10-19T13:00:06.296Z,1021.26
2022-10-19T13:01:06.582Z,1021.26
2022-10-19T13:02:06.299Z,1021.19
2022-10-19T13:03:06.522Z,1021.26
2022-10-19T13:04:26.492Z,1021.24
2022-10-19T13:05:07.609Z,1021.18
2022-10-19T13:06:07.401Z,1021.18
2022-10-19T13:07:06.180Z,1021.15
2022-10-19T13:08:09.289Z,1021.19
2022-10-19T13:09:07.190Z,1021.16
2022-10-19T13:10:06.414Z,1021.09
2022-10-19T13:11:06.170Z,1021.13
2022-10-19T13:12:06.420Z,1021.13
2022-10-19T13:13:06.146Z,1021.15
2022-10-19T13:14:26.943Z,1021.13
2022-10-19T13:15:06.186Z,1021.13
2022-10-19T13:16:06.435Z,1021.15
2022-10-19T13:17:06.200Z,1021.06
2022-10-19T13:18:06.411Z,1021.05
2022-10-19T13:19:06.155Z,1021.11
2022-10-19T13:20:06.403Z,1021.04
2022-10-19T13:21:08.400Z,1020.95
2022-10-19T13:22:06.390Z,1020.92
2022-10-19T13:23:06.124Z,1020.89
2022-10-19T13:24:26.563Z,1020.80
2022-10-19T13:25:06.368Z,1020.76
2022-10-19T13:26:07.379Z,1020.76
2022-10-19T13:27:07.637Z,1020.75
2022-10-19T13:28:05.945Z,1020.72
2022-10-19T13:29:06.186Z,1020.72
2022-10-19T13:30:05.920Z,1020.69
2022-10-19T13:31:10.493Z,1020.71
2022-10-19T13:32:06.345Z,1020.65
2022-10-19T13:33:06.104Z,1020.74
2022-10-19T13:34:27.342Z,1020.72
2022-10-19T13:35:06.118Z,1020.71
2022-10-19T13:36:05.870Z,1020.73
2022-10-19T13:37:06.139Z,1020.74
2022-10-19T13:38:05.907Z,1020.72
2022-10-19T13:39:06.202Z,1020.71
2022-10-19T13:40:05.891Z,1020.70
2022-10-19T13:41:06.163Z,1020.72
2022-10-19T13:42:05.891Z,1020.71
2022-10-19T13:43:06.149Z,1020.73
2022-10-19T13:44:26.903Z,1020.68
2022-10-19T13:45:06.203Z,1020.71
2022-10-19T13:46:07.394Z,1020.70
2022-10-19T13:47:06.341Z,1020.69
2022-10-19T13:48:05.973Z,1020.65
2022-10-19T13:49:05.732Z,1020.68
2022-10-19T13:50:05.997Z,1020.61
2022-10-19T13:51:05.703Z,1020.63
2022-10-19T13:52:06.894Z,1020.60
2022-10-19T13:53:05.754Z,1020.55
2022-10-19T13:54:29.463Z,1020.57
2022-10-19T13:55:05.788Z,1020.50
2022-10-19T13:56:06.059Z,1020.57
2022-10-19T13:57:05.812Z,1020.55
2022-10-19T13:58:06.102Z,1020.56
2022-10-19T13:59:05.851Z,1020.56
2022-10-19T14:00:05.711Z,1020.51
2022-10-19T14:01:05.816Z,1020.53
2022-10-19T14:02:05.609Z,1020.46
2022-10-19T14:03:08.043Z,1020.47
2022-10-19T14:04:27.110Z,1020.46
2022-10-19T14:05:05.871Z,1020.51
2022-10-19T14:06:06.577Z,1020.48
2022-10-19T14:07:07.346Z,1020.44
2022-10-19T14:08:07.087Z,1020.47
2022-10-19T14:09:06.011Z,1020.44
2022-10-19T14:10:05.808Z,1020.50
2022-10-19T14:11:07.370Z,1020.47
2022-10-19T14:12:05.681Z,1020.44
2022-10-19T14:13:07.387Z,1020.48
2022-10-19T14:14:25.853Z,1020.48
2022-10-19T14:15:05.450Z,1020.51
2022-10-19T14:16:05.714Z,1020.52
2022-10-19T14:17:05.675Z,1020.54
2022-10-19T14:18:06.155Z,1020.51
2022-10-19T14:19:05.516Z,1020.52
2022-10-19T14:20:05.797Z,1020.49
2022-10-19T14:21:05.457Z,1020.43
2022-10-19T14:22:05.738Z,1020.46
2022-10-19T14:23:05.502Z,1020.37
2022-10-19T14:24:26.441Z,1020.39
2022-10-19T14:25:05.537Z,1020.43
2022-10-19T14:26:05.889Z,1020.37
2022-10-19T14:27:05.556Z,1020.37
2022-10-19T14:28:05.815Z,1020.33
2022-10-19T14:29:05.645Z,1020.29
2022-10-19T14:30:05.412Z,1020.33